createdAt,value
2022-08-20T00:01:16.829Z,20.61
2022-08-20T00:04:14.567Z,20.63
2022-08-20T00:07:12.033Z,20.63
2022-08-20T00:10:09.565Z,20.64
2022-08-20T00:13:07.869Z,20.63
2022-08-20T00:16:05.341Z,20.63
2022-08-20T00:19:02.805Z,20.61
2022-08-20T00:22:00.273Z,20.60
2022-08-20T00:24:57.759Z,20.59
2022-08-20T00:27:55.409Z,20.58
2022-08-20T00:30:53.034Z,20.57
2022-08-20T00:33:50.553Z,20.57
2022-08-20T00:36:48.176Z,20.55
2022-08-20T00:39:45.709Z,20.55
2022-08-20T00:42:43.235Z,20.55
2022-08-20T00:45:42.558Z,20.55
2022-08-20T00:48:40.044Z,20.55
2022-08-20T00:51:38.431Z,20.55
2022-08-20T00:54:35.907Z,20.55
2022-08-20T00:57:54.835Z,20.54
2022-08-20T01:00:52.115Z,20.55
2022-08-20T01:03:49.595Z,20.55
2022-08-20T01:06:47.948Z,20.54
2022-08-20T01:09:58.006Z,20.55
2022-08-20T01:12:59.221Z,20.56
2022-08-20T01:15:57.310Z,20.57
2022-08-20T01:18:54.799Z,20.56
2022-08-20T01:21:52.306Z,20.57
2022-08-20T01:24:50.511Z,20.57
2022-08-20T01:27:48.000Z,20.59
2022-08-20T01:30:52.863Z,20.59
2022-08-20T01:33:50.360Z,20.59
2022-08-20T01:36:48.238Z,20.60
2022-08-20T01:39:46.123Z,20.61
2022-08-20T01:42:58.675Z,20.61
2022-08-20T01:45:57.270Z,20.62
2022-08-20T01:48:54.736Z,20.63
2022-08-20T01:51:52.248Z,20.64
2022-08-20T01:54:49.721Z,20.65
2022-08-20T01:57:48.663Z,20.65
2022-08-20T02:00:46.158Z,20.65
2022-08-20T02:03:44.905Z,20.67
2022-08-20T02:06:42.472Z,20.67
2022-08-20T02:09:54.436Z,20.68
2022-08-20T02:12:53.038Z,20.69
2022-08-20T02:15:50.911Z,20.68
2022-08-20T02:18:48.378Z,20.69
2022-08-20T02:21:45.858Z,20.70
2022-08-20T02:24:43.327Z,20.72
2022-08-20T02:27:40.803Z,20.74
2022-08-20T02:30:38.311Z,20.75
2022-08-20T02:33:35.789Z,20.77
2022-08-20T02:36:37.446Z,20.77
2022-08-20T02:39:34.936Z,20.79
2022-08-20T02:42:32.487Z,20.80
2022-08-20T02:45:29.953Z,20.79
2022-08-20T02:48:27.429Z,20.79
2022-08-20T02:51:30.350Z,20.79
2022-08-20T02:54:29.411Z,20.79
2022-08-20T02:57:26.921Z,20.79
2022-08-20T03:00:24.415Z,20.79
2022-08-20T03:03:22.931Z,20.79
2022-08-20T03:06:22.214Z,20.79
2022-08-20T03:09:19.679Z,20.78
2022-08-20T03:12:17.153Z,20.77
2022-08-20T03:15:17.509Z,20.77
2022-08-20T03:18:15.451Z,20.77
2022-08-20T03:21:14.672Z,20.77
2022-08-20T03:24:12.512Z,20.76
2022-08-20T03:27:10.017Z,20.77
2022-08-20T03:30:09.524Z,20.77
2022-08-20T03:33:07.016Z,20.78
2022-08-20T03:36:04.500Z,20.78
2022-08-20T03:39:02.128Z,20.78
2022-08-20T03:41:59.596Z,20.79
2022-08-20T03:44:58.949Z,20.78
2022-08-20T03:47:57.041Z,20.79
2022-08-20T03:50:55.928Z,20.79
2022-08-20T03:53:53.423Z,20.79
2022-08-20T03:56:50.920Z,20.79
2022-08-20T03:59:49.874Z,20.79
2022-08-20T04:02:57.381Z,20.79
2022-08-20T04:05:55.097Z,20.78
2022-08-20T04:08:53.977Z,20.78
2022-08-20T04:11:51.548Z,20.77
2022-08-20T04:14:49.074Z,20.77
2022-08-20T04:17:47.137Z,20.76
2022-08-20T04:20:44.834Z,20.74
2022-08-20T04:23:42.365Z,20.72
2022-08-20T04:26:39.881Z,20.70
2022-08-20T04:29:37.809Z,20.69
2022-08-20T04:32:37.149Z,20.68
2022-08-20T04:35:36.029Z,20.67
2022-08-20T04:38:47.777Z,20.65
2022-08-20T04:41:48.965Z,20.63
2022-08-20T04:44:46.456Z,20.62
2022-08-20T04:47:43.964Z,20.60
2022-08-20T04:50:41.483Z,20.59
2022-08-20T04:53:39.527Z,20.58
2022-08-20T04:56:39.841Z,20.58
2022-08-20T04:59:37.543Z,20.57
2022-08-20T05:02:36.028Z,20.57
2022-08-20T05:05:35.316Z,20.55
2022-08-20T05:08:33.383Z,20.55
2022-08-20T05:11:35.843Z,20.54
2022-08-20T05:14:34.441Z,20.55
2022-08-20T05:17:31.949Z,20.56
2022-08-20T05:20:29.838Z,20.59
2022-08-20T05:23:27.321Z,20.63
2022-08-20T05:26:26.745Z,20.68
2022-08-20T05:29:24.798Z,20.71
2022-08-20T05:32:22.319Z,20.76
2022-08-20T05:35:19.851Z,20.81
2022-08-20T05:38:18.240Z,20.87
2022-08-20T05:41:27.549Z,20.93
2022-08-20T05:44:27.303Z,21.00
2022-08-20T05:47:29.238Z,21.07
2022-08-20T05:50:33.347Z,21.12
2022-08-20T05:53:32.476Z,21.16
2022-08-20T05:56:34.805Z,21.20
2022-08-20T05:59:35.213Z,21.21
2022-08-20T06:02:51.173Z,21.23
2022-08-20T06:05:50.820Z,21.25
2022-08-20T06:08:52.313Z,21.26
2022-08-20T06:11:49.914Z,21.28
2022-08-20T06:14:47.660Z,21.30
2022-08-20T06:17:45.146Z,21.33
2022-08-20T06:20:55.871Z,21.38
2022-08-20T06:23:57.499Z,21.45
2022-08-20T06:27:00.102Z,21.55
2022-08-20T06:29:57.583Z,21.67
2022-08-20T06:32:55.097Z,21.76
2022-08-20T06:35:52.578Z,21.83
2022-08-20T06:38:50.157Z,21.91
2022-08-20T06:41:47.805Z,22.00
2022-08-20T06:44:50.167Z,22.09
2022-08-20T06:47:47.718Z,22.18
2022-08-20T06:50:47.405Z,22.28
2022-08-20T06:53:45.667Z,22.43
2022-08-20T06:56:44.308Z,22.60
2022-08-20T06:59:42.068Z,22.75
2022-08-20T07:02:39.553Z,22.92
2022-08-20T07:05:37.031Z,23.06
2022-08-20T07:08:34.509Z,23.14
2022-08-20T07:11:31.971Z,23.18
2022-08-20T07:14:29.447Z,23.17
2022-08-20T07:17:26.981Z,23.13
2022-08-20T07:20:24.491Z,23.09
2022-08-20T07:23:22.053Z,23.05
2022-08-20T07:26:19.562Z,23.03
2022-08-20T07:29:17.056Z,23.05
2022-08-20T07:32:39.518Z,23.10
2022-08-20T07:35:37.541Z,23.22
2022-08-20T07:38:36.363Z,23.41
2022-08-20T07:41:33.848Z,23.62
2022-08-20T07:44:31.470Z,23.82
2022-08-20T07:47:28.961Z,24.07
2022-08-20T07:50:26.436Z,24.44
2022-08-20T07:53:23.922Z,24.80
2022-08-20T07:56:21.491Z,25.14
2022-08-20T07:59:20.327Z,25.61
2022-08-20T08:02:17.795Z,26.12
2022-08-20T08:05:15.347Z,26.63
2022-08-20T08:08:12.845Z,27.05
2022-08-20T08:11:10.355Z,27.46
2022-08-20T08:14:09.674Z,27.84
2022-08-20T08:17:07.300Z,28.08
2022-08-20T08:20:04.793Z,28.21
2022-08-20T08:23:02.254Z,28.43
2022-08-20T08:26:00.385Z,28.67
2022-08-20T08:28:58.530Z,28.81
2022-08-20T08:31:56.134Z,28.91
2022-08-20T08:34:53.628Z,28.93
2022-08-20T08:37:51.116Z,28.78
2022-08-20T08:40:52.206Z,28.54
2022-08-20T08:43:57.427Z,28.30
2022-08-20T08:46:56.656Z,28.28
2022-08-20T08:49:54.140Z,28.36
2022-08-20T08:52:51.607Z,28.47
2022-08-20T08:55:49.126Z,28.48
2022-08-20T08:58:46.623Z,28.42
2022-08-20T09:01:56.328Z,28.31
2022-08-20T09:04:56.161Z,28.26
2022-08-20T09:07:54.410Z,28.14
2022-08-20T09:10:51.955Z,28.00
2022-08-20T09:13:49.444Z,27.99
2022-08-20T09:16:52.866Z,27.99
2022-08-20T09:19:52.493Z,28.06
2022-08-20T09:22:50.191Z,28.12
2022-08-20T09:25:49.906Z,28.21
2022-08-20T09:28:51.658Z,28.29
2022-08-20T09:31:49.862Z,28.43
2022-08-20T09:34:47.351Z,28.64
2022-08-20T09:37:44.834Z,28.92
2022-08-20T09:40:43.493Z,29.19
2022-08-20T09:43:41.086Z,29.54
2022-08-20T09:46:38.588Z,29.94
2022-08-20T09:49:37.441Z,30.35
2022-08-20T09:52:38.868Z,30.67
2022-08-20T09:55:38.130Z,30.76
2022-08-20T09:58:35.666Z,30.74
2022-08-20T10:01:33.441Z,30.54
2022-08-20T10:04:30.991Z,30.39
2022-08-20T10:07:28.485Z,30.43
2022-08-20T10:10:25.949Z,30.76
2022-08-20T10:13:23.418Z,31.25
2022-08-20T10:16:20.899Z,31.81
2022-08-20T10:19:18.376Z,32.37
2022-08-20T10:22:15.852Z,32.84
2022-08-20T10:25:13.616Z,33.19
2022-08-20T10:28:11.192Z,33.37
2022-08-20T10:31:08.674Z,33.48
2022-08-20T10:34:06.418Z,33.46
2022-08-20T10:37:03.903Z,33.47
2022-08-20T10:40:01.499Z,33.60
2022-08-20T10:42:59.111Z,33.77
2022-08-20T10:45:56.603Z,33.91
2022-08-20T10:48:54.081Z,34.04
2022-08-20T10:51:51.555Z,34.19
2022-08-20T10:54:49.349Z,34.22
2022-08-20T10:57:46.886Z,34.12
2022-08-20T11:00:45.836Z,34.01
2022-08-20T11:03:43.529Z,33.81
2022-08-20T11:06:41.032Z,33.31
2022-08-20T11:09:38.612Z,32.68
2022-08-20T11:12:36.091Z,32.09
2022-08-20T11:15:33.565Z,31.69
2022-08-20T11:18:31.045Z,31.42
2022-08-20T11:21:28.509Z,31.15
2022-08-20T11:24:25.986Z,30.92
2022-08-20T11:27:23.468Z,30.71
2022-08-20T11:30:20.922Z,30.54
2022-08-20T11:33:19.334Z,30.42
2022-08-20T11:36:20.758Z,30.43
2022-08-20T11:39:18.957Z,30.53
2022-08-20T11:42:16.662Z,30.63
2022-08-20T11:45:14.122Z,30.72
2022-08-20T11:48:11.615Z,30.72
2022-08-20T11:51:09.078Z,30.64
2022-08-20T11:54:06.559Z,30.53
2022-08-20T11:57:05.625Z,30.44
2022-08-20T12:00:03.143Z,30.26
2022-08-20T12:03:00.810Z,30.04
2022-08-20T12:05:58.497Z,29.73
2022-08-20T12:08:55.986Z,29.45
2022-08-20T12:11:53.941Z,29.10
2022-08-20T12:14:51.450Z,28.81
2022-08-20T12:17:48.965Z,28.53
2022-08-20T12:20:46.417Z,28.23
2022-08-20T12:23:48.418Z,27.96
2022-08-20T12:26:46.267Z,27.80
2022-08-20T12:29:43.747Z,27.66
2022-08-20T12:32:41.227Z,27.46
2022-08-20T12:35:39.026Z,27.28
2022-08-20T12:38:36.536Z,27.10
2022-08-20T12:41:33.996Z,26.93
2022-08-20T12:44:31.479Z,26.75
2022-08-20T12:47:28.946Z,26.55
2022-08-20T12:50:31.261Z,26.39
2022-08-20T12:53:29.160Z,26.22
2022-08-20T12:56:26.643Z,26.12
2022-08-20T12:59:26.070Z,26.04
2022-08-20T13:02:23.736Z,26.09
2022-08-20T13:05:21.217Z,26.13
2022-08-20T13:08:19.635Z,26.09
2022-08-20T13:11:17.240Z,26.08
2022-08-20T13:14:14.710Z,26.11
2022-08-20T13:17:12.197Z,26.11
2022-08-20T13:20:10.242Z,26.07
2022-08-20T13:23:07.722Z,26.04
2022-08-20T13:26:05.945Z,26.09
2022-08-20T13:29:03.417Z,26.15
2022-08-20T13:32:00.865Z,26.17
2022-08-20T13:34:58.329Z,26.12
2022-08-20T13:37:55.811Z,26.12
2022-08-20T13:40:53.302Z,26.20
2022-08-20T13:43:50.789Z,26.33
2022-08-20T13:46:48.738Z,26.45
2022-08-20T13:49:46.235Z,26.67
2022-08-20T13:52:43.699Z,26.97
2022-08-20T13:55:41.780Z,27.20
2022-08-20T13:58:39.239Z,27.32
2022-08-20T14:01:36.772Z,27.30
2022-08-20T14:04:34.311Z,27.26
2022-08-20T14:07:32.918Z,27.20
2022-08-20T14:10:32.807Z,27.12
2022-08-20T14:13:30.272Z,27.02
2022-08-20T14:16:29.000Z,26.94
2022-08-20T14:19:27.897Z,26.88
2022-08-20T14:22:25.391Z,26.81
2022-08-20T14:25:22.889Z,26.67
2022-08-20T14:28:20.358Z,26.48
2022-08-20T14:31:17.846Z,26.26
2022-08-20T14:34:15.313Z,26.00
2022-08-20T14:37:13.065Z,25.74
2022-08-20T14:40:10.587Z,25.52
2022-08-20T14:43:08.082Z,25.32
2022-08-20T14:46:05.563Z,25.08
2022-08-20T14:49:03.048Z,24.89
2022-08-20T14:52:00.534Z,24.69
2022-08-20T14:54:58.011Z,24.55
2022-08-20T14:57:55.486Z,24.48
2022-08-20T15:00:53.069Z,24.35
2022-08-20T15:03:50.578Z,24.22
2022-08-20T15:06:48.654Z,24.12
2022-08-20T15:09:46.538Z,24.02
2022-08-20T15:12:44.014Z,23.95
2022-08-20T15:15:41.640Z,23.86
2022-08-20T15:18:39.130Z,23.79
2022-08-20T15:21:44.957Z,23.74
2022-08-20T15:24:43.410Z,23.69
2022-08-20T15:27:40.900Z,23.66
2022-08-20T15:30:38.365Z,23.61
2022-08-20T15:33:35.872Z,23.54
2022-08-20T15:36:33.356Z,23.48
2022-08-20T15:39:30.827Z,23.41
2022-08-20T15:42:28.309Z,23.33
2022-08-20T15:45:25.800Z,23.24
2022-08-20T15:48:23.314Z,23.14
2022-08-20T15:51:20.816Z,23.02
2022-08-20T15:54:18.270Z,22.96
2022-08-20T15:57:17.508Z,22.91
2022-08-20T16:00:14.994Z,22.85
2022-08-20T16:03:12.473Z,22.80
2022-08-20T16:06:13.648Z,22.77
2022-08-20T16:09:11.497Z,22.74
2022-08-20T16:12:08.979Z,22.69
2022-08-20T16:15:06.464Z,22.66
2022-08-20T16:18:03.938Z,22.65
2022-08-20T16:21:03.771Z,22.62
2022-08-20T16:24:01.578Z,22.56
2022-08-20T16:26:59.772Z,22.53
2022-08-20T16:29:57.279Z,22.50
2022-08-20T16:32:54.802Z,22.46
2022-08-20T16:35:52.283Z,22.41
2022-08-20T16:38:49.771Z,22.38
2022-08-20T16:41:47.314Z,22.34
2022-08-20T16:44:44.796Z,22.31
2022-08-20T16:47:42.324Z,22.28
2022-08-20T16:50:40.388Z,22.27
2022-08-20T16:53:37.872Z,22.24
2022-08-20T16:56:35.338Z,22.23
2022-08-20T16:59:33.089Z,22.20
2022-08-20T17:02:30.550Z,22.15
2022-08-20T17:05:28.046Z,22.11
2022-08-20T17:08:25.520Z,22.07
2022-08-20T17:11:24.266Z,22.02
2022-08-20T17:14:21.742Z,21.99
2022-08-20T17:17:19.205Z,21.94
2022-08-20T17:20:20.260Z,21.91
2022-08-20T17:23:18.582Z,21.87
2022-08-20T17:26:16.055Z,21.84
2022-08-20T17:29:14.039Z,21.81
2022-08-20T17:32:11.816Z,21.78
2022-08-20T17:35:09.295Z,21.72
2022-08-20T17:38:06.807Z,21.68
2022-08-20T17:41:04.832Z,21.63
2022-08-20T17:44:02.331Z,21.59
2022-08-20T17:46:59.818Z,21.55
2022-08-20T17:50:02.195Z,21.52
2022-08-20T17:53:00.491Z,21.49
2022-08-20T17:55:58.535Z,21.46
2022-08-20T17:59:02.822Z,21.42
2022-08-20T18:02:01.184Z,21.39
2022-08-20T18:04:58.722Z,21.35
2022-08-20T18:07:56.194Z,21.31
2022-08-20T18:10:53.682Z,21.28
2022-08-20T18:13:51.143Z,21.25
2022-08-20T18:16:48.677Z,21.21
2022-08-20T18:19:46.169Z,21.16
2022-08-20T18:22:43.653Z,21.11
2022-08-20T18:25:41.141Z,21.05
2022-08-20T18:28:38.944Z,21.00
2022-08-20T18:31:36.588Z,20.95
2022-08-20T18:34:34.078Z,20.91
2022-08-20T18:37:31.582Z,20.89
2022-08-20T18:40:29.220Z,20.87
2022-08-20T18:43:30.487Z,20.84
2022-08-20T18:46:28.160Z,20.80
2022-08-20T18:49:25.614Z,20.77
2022-08-20T18:52:23.163Z,20.75
2022-08-20T18:55:20.674Z,20.74
2022-08-20T18:58:18.147Z,20.71
2022-08-20T19:01:15.729Z,20.69
2022-08-20T19:04:13.651Z,20.66
2022-08-20T19:07:11.191Z,20.60
2022-08-20T19:10:09.488Z,20.56
2022-08-20T19:13:14.173Z,20.53
2022-08-20T19:16:13.616Z,20.51
2022-08-20T19:19:11.068Z,20.47
2022-08-20T19:22:08.532Z,20.45
2022-08-20T19:25:06.033Z,20.43
2022-08-20T19:28:03.528Z,20.40
2022-08-20T19:31:01.170Z,20.37
2022-08-20T19:33:59.014Z,20.35
2022-08-20T19:36:57.667Z,20.32
2022-08-20T19:39:55.646Z,20.29
2022-08-20T19:42:53.150Z,20.27
2022-08-20T19:45:50.595Z,20.25
2022-08-20T19:48:48.090Z,20.22
2022-08-20T19:51:47.968Z,20.19
2022-08-20T19:54:46.528Z,20.17
2022-08-20T19:57:44.401Z,20.14
2022-08-20T20:00:42.362Z,20.12
2022-08-20T20:03:39.859Z,20.11
2022-08-20T20:06:37.343Z,20.07
2022-08-20T20:09:34.820Z,20.03
2022-08-20T20:12:32.593Z,19.96
2022-08-20T20:15:30.278Z,19.94
2022-08-20T20:18:27.830Z,19.92
2022-08-20T20:21:25.300Z,19.91
2022-08-20T20:24:22.774Z,19.89
2022-08-20T20:27:21.595Z,19.86
2022-08-20T20:30:19.489Z,19.84
2022-08-20T20:33:16.986Z,19.83
2022-08-20T20:36:14.470Z,19.82
2022-08-20T20:39:14.491Z,19.80
2022-08-20T20:42:12.931Z,19.79
2022-08-20T20:45:10.425Z,19.77
2022-08-20T20:48:07.905Z,19.75
2022-08-20T20:51:05.381Z,19.72
2022-08-20T20:54:02.904Z,19.69
2022-08-20T20:57:00.416Z,19.64
2022-08-20T20:59:57.910Z,19.60
2022-08-20T21:02:55.362Z,19.55
2022-08-20T21:05:52.828Z,19.50
2022-08-20T21:08:50.701Z,19.44
2022-08-20T21:11:48.164Z,19.39
2022-08-20T21:14:45.680Z,19.34
2022-08-20T21:17:43.313Z,19.29
2022-08-20T21:20:40.793Z,19.23
2022-08-20T21:23:40.390Z,19.18
2022-08-20T21:26:39.585Z,19.15
2022-08-20T21:29:37.727Z,19.12
2022-08-20T21:32:35.225Z,19.09
2022-08-20T21:35:32.747Z,19.08
2022-08-20T21:38:30.211Z,19.05
2022-08-20T21:41:30.082Z,19.01
2022-08-20T21:44:27.877Z,18.96
2022-08-20T21:47:27.336Z,18.93
2022-08-20T21:50:24.821Z,18.88
2022-08-20T21:53:22.314Z,18.84
2022-08-20T21:56:19.803Z,18.79
2022-08-20T21:59:19.987Z,18.73
2022-08-20T22:02:17.493Z,18.67
2022-08-20T22:05:14.981Z,18.63
2022-08-20T22:08:12.457Z,18.58
2022-08-20T22:11:09.950Z,18.54
2022-08-20T22:14:07.430Z,18.50
2022-08-20T22:17:04.897Z,18.48
2022-08-20T22:20:02.500Z,18.44
2022-08-20T22:23:00.102Z,18.42
2022-08-20T22:25:57.698Z,18.40
2022-08-20T22:28:55.175Z,18.39
2022-08-20T22:31:52.677Z,18.37
2022-08-20T22:34:50.147Z,18.37
2022-08-20T22:37:47.626Z,18.35
2022-08-20T22:40:45.106Z,18.32
2022-08-20T22:43:55.043Z,18.27
2022-08-20T22:46:55.868Z,18.24
2022-08-20T22:49:53.537Z,18.25
2022-08-20T22:52:51.098Z,18.29
2022-08-20T22:55:48.595Z,18.30
2022-08-20T22:58:46.286Z,18.30
2022-08-20T23:01:47.687Z,18.29
2022-08-20T23:04:45.157Z,18.28
2022-08-20T23:07:42.638Z,18.26
2022-08-20T23:10:40.112Z,18.26
2022-08-20T23:13:37.598Z,18.23
2022-08-20T23:16:35.065Z,18.22
2022-08-20T23:19:32.545Z,18.18
2022-08-20T23:22:30.026Z,18.15
2022-08-20T23:25:27.488Z,18.12
2022-08-20T23:28:25.304Z,18.10
2022-08-20T23:31:23.122Z,18.08
2022-08-20T23:34:20.613Z,18.06
2022-08-20T23:37:18.933Z,18.04
2022-08-20T23:40:16.459Z,18.01
2022-08-20T23:43:14.005Z,17.99
2022-08-20T23:46:11.508Z,17.98
2022-08-20T23:49:08.986Z,17.98
2022-08-20T23:52:06.596Z,17.98
2022-08-20T23:55:04.090Z,17.98
2022-08-20T23:58:01.565Z,17.98
